Fellsmere, Florida
Current Conditions -  °F | °C
As of 8:53 PM on Friday 28 Nov 2014 (Local Time) from KVRB Reporting Station
Clear Clear  
Wind Chill: 51°   Ceiling: Unl
Heat Index: 51°   Visibility: 10mi
Dew Point: 46°   Wind: 13mph
Humidity: 83%   Direction: 310°NW
Pressure: 30.24"   Gusts: NA
Location:  27.77°N, 80.6°W
Report Text: KVRB 290153Z AUTO 31011KT 10SM CLR 11/08 A3024 RMK AO2 SLP239 T01060078
Loading
Personal Weather Stations






























Interactive Weather Map New forecast layout! Learn more

10-Day Weather Forecast

Advertisements
Track Severe Weather on mobile